sensor_id;sensor_type;location;lat;lon;timestamp;temperature;humidity
21849;DHT22;11089;49.852;19.700;2022-12-07T00:02:08;2.00;99.90
21849;DHT22;11089;49.852;19.700;2022-12-07T00:05:09;2.10;99.90
21849;DHT22;11089;49.852;19.700;2022-12-07T00:08:10;2.00;99.90
21849;DHT22;11089;49.852;19.700;2022-12-07T00:11:13;2.10;99.90
21849;DHT22;11089;49.852;19.700;2022-12-07T00:14:15;2.10;99.90
21849;DHT22;11089;49.852;19.700;2022-12-07T00:17:17;2.10;99.90
21849;DHT22;11089;49.852;19.700;2022-12-07T00:20:18;2.10;99.90
21849;DHT22;11089;49.852;19.700;2022-12-07T00:23:18;2.20;99.90
21849;DHT22;11089;49.852;19.700;2022-12-07T00:26:22;2.20;99.90
21849;DHT22;11089;49.852;19.700;2022-12-07T00:29:23;2.20;99.90
21849;DHT22;11089;49.852;19.700;2022-12-07T00:32:24;2.20;99.90
21849;DHT22;11089;49.852;19.700;2022-12-07T00:35:25;2.20;99.90
21849;DHT22;11089;49.852;19.700;2022-12-07T00:38:29;2.20;99.90
21849;DHT22;11089;49.852;19.700;2022-12-07T00:41:30;2.20;99.90
21849;DHT22;11089;49.852;19.700;2022-12-07T00:44:31;2.20;99.90
21849;DHT22;11089;49.852;19.700;2022-12-07T00:47:32;2.20;99.90
21849;DHT22;11089;49.852;19.700;2022-12-07T00:50:33;2.20;99.90
21849;DHT22;11089;49.852;19.700;2022-12-07T00:53:35;2.20;99.90
21849;DHT22;11089;49.852;19.700;2022-12-07T00:56:36;2.30;99.90
21849;DHT22;11089;49.852;19.700;2022-12-07T00:59:37;2.20;99.90
21849;DHT22;11089;49.852;19.700;2022-12-07T01:02:38;2.30;99.90
21849;DHT22;11089;49.852;19.700;2022-12-07T01:05:39;2.30;99.90
21849;DHT22;11089;49.852;19.700;2022-12-07T01:08:40;2.30;99.90
21849;DHT22;11089;49.852;19.700;2022-12-07T01:11:42;2.30;99.90
21849;DHT22;11089;49.852;19.700;2022-12-07T01:14:43;2.30;99.90
21849;DHT22;11089;49.852;19.700;2022-12-07T01:17:44;2.30;99.90
21849;DHT22;11089;49.852;19.700;2022-12-07T01:20:44;2.30;99.90
21849;DHT22;11089;49.852;19.700;2022-12-07T01:23:45;2.30;99.90
21849;DHT22;11089;49.852;19.700;2022-12-07T01:26:49;2.30;99.90
21849;DHT22;11089;49.852;19.700;2022-12-07T01:29:51;2.30;99.90
21849;DHT22;11089;49.852;19.700;2022-12-07T01:32:52;2.30;99.90
21849;DHT22;11089;49.852;19.700;2022-12-07T01:35:52;2.30;99.90
21849;DHT22;11089;49.852;19.700;2022-12-07T01:38:58;2.30;99.90
21849;DHT22;11089;49.852;19.700;2022-12-07T01:42:00;2.30;99.90
21849;DHT22;11089;49.852;19.700;2022-12-07T01:45:31;2.30;99.90
21849;DHT22;11089;49.852;19.700;2022-12-07T01:48:39;2.30;99.90
21849;DHT22;11089;49.852;19.700;2022-12-07T01:51:42;2.30;99.90
21849;DHT22;11089;49.852;19.700;2022-12-07T01:54:44;2.30;99.90
21849;DHT22;11089;49.852;19.700;2022-12-07T01:57:49;2.30;99.90
21849;DHT22;11089;49.852;19.700;2022-12-07T02:00:51;2.40;99.90
21849;DHT22;11089;49.852;19.700;2022-12-07T02:03:52;2.30;99.90
21849;DHT22;11089;49.852;19.700;2022-12-07T02:06:53;2.40;99.90
21849;DHT22;11089;49.852;19.700;2022-12-07T02:09:55;2.40;99.90
21849;DHT22;11089;49.852;19.700;2022-12-07T02:13:05;2.40;99.90
21849;DHT22;11089;49.852;19.700;2022-12-07T02:17:23;2.40;99.90
21849;DHT22;11089;49.852;19.700;2022-12-07T02:20:09;2.40;99.90
21849;DHT22;11089;49.852;19.700;2022-12-07T02:30:01;2.40;99.90
21849;DHT22;11089;49.852;19.700;2022-12-07T02:33:14;2.50;99.90
21849;DHT22;11089;49.852;19.700;2022-12-07T02:36:25;2.50;99.90
21849;DHT22;11089;49.852;19.700;2022-12-07T02:39:48;2.50;99.90
21849;DHT22;11089;49.852;19.700;2022-12-07T02:43:00;2.50;99.90
21849;DHT22;11089;49.852;19.700;2022-12-07T02:46:15;2.50;99.90
21849;DHT22;11089;49.852;19.700;2022-12-07T02:49:18;2.60;99.90
21849;DHT22;11089;49.852;19.700;2022-12-07T02:52:19;2.60;99.90
21849;DHT22;11089;49.852;19.700;2022-12-07T02:55:26;2.60;99.90
21849;DHT22;11089;49.852;19.700;2022-12-07T02:58:32;2.60;99.90
21849;DHT22;11089;49.852;19.700;2022-12-07T03:02:00;2.60;99.90
21849;DHT22;11089;49.852;19.700;2022-12-07T03:05:13;2.60;99.90
21849;DHT22;11089;49.852;19.700;2022-12-07T03:08:38;2.70;99.90
21849;DHT22;11089;49.852;19.700;2022-12-07T03:12:00;2.70;99.90
21849;DHT22;11089;49.852;19.700;2022-12-07T03:15:18;2.70;99.90
21849;DHT22;11089;49.852;19.700;2022-12-07T03:18:25;2.70;99.90
21849;DHT22;11089;49.852;19.700;2022-12-07T03:21:38;2.70;99.90
21849;DHT22;11089;49.852;19.700;2022-12-07T03:24:55;2.70;99.90
21849;DHT22;11089;49.852;19.700;2022-12-07T03:28:03;2.70;99.90
21849;DHT22;11089;49.852;19.700;2022-12-07T03:31:16;2.70;99.90
21849;DHT22;11089;49.852;19.700;2022-12-07T03:34:29;2.70;99.90
21849;DHT22;11089;49.852;19.700;2022-12-07T03:37:38;2.70;99.90
21849;DHT22;11089;49.852;19.700;2022-12-07T03:40:49;2.70;99.90
21849;DHT22;11089;49.852;19.700;2022-12-07T03:43:53;2.70;99.90
21849;DHT22;11089;49.852;19.700;2022-12-07T03:47:09;2.70;99.90
21849;DHT22;11089;49.852;19.700;2022-12-07T03:53:40;2.60;99.90
21849;DHT22;11089;49.852;19.700;2022-12-07T03:56:45;2.70;99.90
21849;DHT22;11089;49.852;19.700;2022-12-07T03:59:47;2.70;99.90
21849;DHT22;11089;49.852;19.700;2022-12-07T04:02:52;2.70;99.90
21849;DHT22;11089;49.852;19.700;2022-12-07T04:05:53;2.60;99.90
21849;DHT22;11089;49.852;19.700;2022-12-07T04:08:54;2.70;99.90
21849;DHT22;11089;49.852;19.700;2022-12-07T04:11:55;2.60;99.90
21849;DHT22;11089;49.852;19.700;2022-12-07T04:14:56;2.60;99.90
21849;DHT22;11089;49.852;19.700;2022-12-07T04:17:57;2.60;99.90
21849;DHT22;11089;49.852;19.700;2022-12-07T04:20:58;2.60;99.90
21849;DHT22;11089;49.852;19.700;2022-12-07T04:23:59;2.60;99.90
21849;DHT22;11089;49.852;19.700;2022-12-07T04:27:00;2.60;99.90
21849;DHT22;11089;49.852;19.700;2022-12-07T04:30:01;2.60;99.90
21849;DHT22;11089;49.852;19.700;2022-12-07T04:33:02;2.60;99.90
21849;DHT22;11089;49.852;19.700;2022-12-07T04:36:03;2.60;99.90
21849;DHT22;11089;49.852;19.700;2022-12-07T04:39:06;2.60;99.90
21849;DHT22;11089;49.852;19.700;2022-12-07T04:42:07;2.70;99.90
21849;DHT22;11089;49.852;19.700;2022-12-07T04:45:08;2.60;99.90
21849;DHT22;11089;49.852;19.700;2022-12-07T04:48:09;2.70;99.90
21849;DHT22;11089;49.852;19.700;2022-12-07T04:51:10;2.70;99.90
21849;DHT22;11089;49.852;19.700;2022-12-07T04:54:12;2.70;99.90
21849;DHT22;11089;49.852;19.700;2022-12-07T04:57:13;2.70;99.90
21849;DHT22;11089;49.852;19.700;2022-12-07T05:00:14;2.70;99.90
21849;DHT22;11089;49.852;19.700;2022-12-07T05:03:15;2.70;99.90
21849;DHT22;11089;49.852;19.700;2022-12-07T05:06:16;2.60;99.90
21849;DHT22;11089;49.852;19.700;2022-12-07T05:09:17;2.60;99.90
21849;DHT22;11089;49.852;19.700;2022-12-07T05:12:18;2.60;99.90
21849;DHT22;11089;49.852;19.700;2022-12-07T05:15:19;2.60;99.90
21849;DHT22;11089;49.852;19.700;2022-12-07T05:18:20;2.60;99.90
21849;DHT22;11089;49.852;19.700;2022-12-07T05:21:21;2.60;99.90
21849;DHT22;11089;49.852;19.700;2022-12-07T05:24:22;2.60;99.90
21849;DHT22;11089;49.852;19.700;2022-12-07T05:27:23;2.50;99.90
21849;DHT22;11089;49.852;19.700;2022-12-07T05:30:25;2.60;99.90
21849;DHT22;11089;49.852;19.700;2022-12-07T05:33:26;2.50;99.90
21849;DHT22;11089;49.852;19.700;2022-12-07T05:36:27;2.50;99.90
21849;DHT22;11089;49.852;19.700;2022-12-07T05:39:29;2.50;99.90
21849;DHT22;11089;49.852;19.700;2022-12-07T05:42:30;2.50;99.90
21849;DHT22;11089;49.852;19.700;2022-12-07T05:45:31;2.50;99.90
21849;DHT22;11089;49.852;19.700;2022-12-07T05:48:31;2.50;99.90
21849;DHT22;11089;49.852;19.700;2022-12-07T05:51:32;2.50;99.90
21849;DHT22;11089;49.852;19.700;2022-12-07T05:54:33;2.50;99.90
21849;DHT22;11089;49.852;19.700;2022-12-07T05:57:34;2.40;99.90
21849;DHT22;11089;49.852;19.700;2022-12-07T06:00:35;2.40;99.90
21849;DHT22;11089;49.852;19.700;2022-12-07T06:03:36;2.40;99.90
21849;DHT22;11089;49.852;19.700;2022-12-07T06:06:37;2.40;99.90
21849;DHT22;11089;49.852;19.700;2022-12-07T06:09:38;2.40;99.90
21849;DHT22;11089;49.852;19.700;2022-12-07T06:12:39;2.40;99.90
21849;DHT22;11089;49.852;19.700;2022-12-07T06:15:43;2.40;99.90
21849;DHT22;11089;49.852;19.700;2022-12-07T06:18:44;2.40;99.90
21849;DHT22;11089;49.852;19.700;2022-12-07T06:21:45;2.40;99.90
21849;DHT22;11089;49.852;19.700;2022-12-07T06:24:46;2.40;99.90
21849;DHT22;11089;49.852;19.700;2022-12-07T06:27:47;2.40;99.90
21849;DHT22;11089;49.852;19.700;2022-12-07T06:30:59;2.40;99.90
21849;DHT22;11089;49.852;19.700;2022-12-07T06:34:03;2.40;99.90
21849;DHT22;11089;49.852;19.700;2022-12-07T06:37:04;2.40;99.90
21849;DHT22;11089;49.852;19.700;2022-12-07T06:40:06;2.40;99.90
21849;DHT22;11089;49.852;19.700;2022-12-07T06:43:07;2.40;99.90
21849;DHT22;11089;49.852;19.700;2022-12-07T06:46:08;2.40;99.90
21849;DHT22;11089;49.852;19.700;2022-12-07T06:49:09;2.40;99.90
21849;DHT22;11089;49.852;19.700;2022-12-07T06:52:10;2.40;99.90
21849;DHT22;11089;49.852;19.700;2022-12-07T06:55:11;2.40;99.90
21849;DHT22;11089;49.852;19.700;2022-12-07T06:58:12;2.40;99.90
21849;DHT22;11089;49.852;19.700;2022-12-07T07:01:15;2.40;99.90
21849;DHT22;11089;49.852;19.700;2022-12-07T07:04:17;2.40;99.90
21849;DHT22;11089;49.852;19.700;2022-12-07T07:07:18;2.40;99.90
21849;DHT22;11089;49.852;19.700;2022-12-07T07:10:18;2.40;99.90
21849;DHT22;11089;49.852;19.700;2022-12-07T07:13:19;2.40;99.90
21849;DHT22;11089;49.852;19.700;2022-12-07T07:16:20;2.40;99.90
21849;DHT22;11089;49.852;19.700;2022-12-07T07:19:21;2.40;99.90
21849;DHT22;11089;49.852;19.700;2022-12-07T07:22:22;2.40;99.90
21849;DHT22;11089;49.852;19.700;2022-12-07T07:25:23;2.40;99.90
21849;DHT22;11089;49.852;19.700;2022-12-07T07:28:24;2.40;99.90
21849;DHT22;11089;49.852;19.700;2022-12-07T07:31:25;2.40;99.90
21849;DHT22;11089;49.852;19.700;2022-12-07T07:34:26;2.40;99.90
21849;DHT22;11089;49.852;19.700;2022-12-07T07:37:27;2.40;99.90
21849;DHT22;11089;49.852;19.700;2022-12-07T07:40:28;2.40;99.90
21849;DHT22;11089;49.852;19.700;2022-12-07T07:43:29;2.40;99.90
21849;DHT22;11089;49.852;19.700;2022-12-07T07:46:30;2.40;99.90
21849;DHT22;11089;49.852;19.700;2022-12-07T07:49:33;2.40;99.90
21849;DHT22;11089;49.852;19.700;2022-12-07T07:52:34;2.40;99.90
21849;DHT22;11089;49.852;19.700;2022-12-07T07:55:35;2.40;99.90
21849;DHT22;11089;49.852;19.700;2022-12-07T07:58:36;2.40;99.90
21849;DHT22;11089;49.852;19.700;2022-12-07T08:01:40;2.40;99.90
21849;DHT22;11089;49.852;19.700;2022-12-07T08:04:41;2.40;99.90
21849;DHT22;11089;49.852;19.700;2022-12-07T08:07:42;2.50;99.90
21849;DHT22;11089;49.852;19.700;2022-12-07T08:10:43;2.50;99.90
21849;DHT22;11089;49.852;19.700;2022-12-07T08:13:45;2.50;99.90
21849;DHT22;11089;49.852;19.700;2022-12-07T08:16:47;2.50;99.90
21849;DHT22;11089;49.852;19.700;2022-12-07T08:19:48;2.50;99.90
21849;DHT22;11089;49.852;19.700;2022-12-07T08:22:49;2.50;99.90
21849;DHT22;11089;49.852;19.700;2022-12-07T08:25:50;2.50;99.90
21849;DHT22;11089;49.852;19.700;2022-12-07T08:28:52;2.50;99.90
21849;DHT22;11089;49.852;19.700;2022-12-07T08:31:53;2.40;99.90
21849;DHT22;11089;49.852;19.700;2022-12-07T08:34:54;2.40;99.90
21849;DHT22;11089;49.852;19.700;2022-12-07T08:37:55;2.40;99.90
21849;DHT22;11089;49.852;19.700;2022-12-07T08:40:59;2.40;99.90
21849;DHT22;11089;49.852;19.700;2022-12-07T08:44:00;2.30;99.90
21849;DHT22;11089;49.852;19.700;2022-12-07T08:47:04;2.30;99.90
21849;DHT22;11089;49.852;19.700;2022-12-07T08:50:07;2.30;99.90
21849;DHT22;11089;49.852;19.700;2022-12-07T08:53:10;2.30;99.90
21849;DHT22;11089;49.852;19.700;2022-12-07T08:56:11;2.30;99.90
21849;DHT22;11089;49.852;19.700;2022-12-07T08:59:14;2.30;99.90
21849;DHT22;11089;49.852;19.700;2022-12-07T09:02:15;2.40;99.90
21849;DHT22;11089;49.852;19.700;2022-12-07T09:05:16;2.40;99.90
21849;DHT22;11089;49.852;19.700;2022-12-07T09:08:17;2.40;99.90
21849;DHT22;11089;49.852;19.700;2022-12-07T09:11:18;2.40;99.90
21849;DHT22;11089;49.852;19.700;2022-12-07T09:14:19;2.40;99.90
21849;DHT22;11089;49.852;19.700;2022-12-07T09:17:20;2.50;99.90
21849;DHT22;11089;49.852;19.700;2022-12-07T09:20:21;2.50;99.90
21849;DHT22;11089;49.852;19.700;2022-12-07T09:23:22;2.50;99.90
21849;DHT22;11089;49.852;19.700;2022-12-07T09:26:23;2.60;99.90
21849;DHT22;11089;49.852;19.700;2022-12-07T09:29:24;2.60;99.90
21849;DHT22;11089;49.852;19.700;2022-12-07T09:32:25;2.70;99.90
21849;DHT22;11089;49.852;19.700;2022-12-07T09:35:26;2.80;99.90
21849;DHT22;11089;49.852;19.700;2022-12-07T09:38:27;2.80;99.90
21849;DHT22;11089;49.852;19.700;2022-12-07T09:41:32;2.80;99.90
21849;DHT22;11089;49.852;19.700;2022-12-07T09:44:34;2.80;99.90
21849;DHT22;11089;49.852;19.700;2022-12-07T09:47:35;2.80;99.90
21849;DHT22;11089;49.852;19.700;2022-12-07T09:50:36;2.80;99.90
21849;DHT22;11089;49.852;19.700;2022-12-07T09:53:38;2.80;99.90
21849;DHT22;11089;49.852;19.700;2022-12-07T09:56:39;2.80;99.90
21849;DHT22;11089;49.852;19.700;2022-12-07T09:59:40;2.80;99.90
21849;DHT22;11089;49.852;19.700;2022-12-07T10:02:44;2.80;99.90
21849;DHT22;11089;49.852;19.700;2022-12-07T10:05:48;2.90;99.90
21849;DHT22;11089;49.852;19.700;2022-12-07T10:08:50;2.90;99.90
21849;DHT22;11089;49.852;19.700;2022-12-07T10:12:08;2.90;99.90
21849;DHT22;11089;49.852;19.700;2022-12-07T10:15:10;3.00;99.90
21849;DHT22;11089;49.852;19.700;2022-12-07T10:18:33;3.00;99.90
21849;DHT22;11089;49.852;19.700;2022-12-07T10:21:36;2.90;99.90
21849;DHT22;11089;49.852;19.700;2022-12-07T10:24:38;3.00;99.90
21849;DHT22;11089;49.852;19.700;2022-12-07T10:27:41;3.00;99.90
21849;DHT22;11089;49.852;19.700;2022-12-07T10:31:15;3.00;99.90
21849;DHT22;11089;49.852;19.700;2022-12-07T10:34:26;3.10;99.90
21849;DHT22;11089;49.852;19.700;2022-12-07T10:37:27;3.10;99.90
21849;DHT22;11089;49.852;19.700;2022-12-07T10:40:30;3.10;99.90
21849;DHT22;11089;49.852;19.700;2022-12-07T10:43:32;3.20;99.90
21849;DHT22;11089;49.852;19.700;2022-12-07T10:47:09;3.40;99.90
21849;DHT22;11089;49.852;19.700;2022-12-07T10:50:17;3.50;99.90
21849;DHT22;11089;49.852;19.700;2022-12-07T11:00:29;3.60;99.90
21849;DHT22;11089;49.852;19.700;2022-12-07T11:06:46;3.90;99.90
21849;DHT22;11089;49.852;19.700;2022-12-07T11:10:20;3.90;99.90
21849;DHT22;11089;49.852;19.700;2022-12-07T11:13:29;3.90;99.90
21849;DHT22;11089;49.852;19.700;2022-12-07T11:20:15;3.90;99.90
21849;DHT22;11089;49.852;19.700;2022-12-07T11:30:00;4.10;99.90
21849;DHT22;11089;49.852;19.700;2022-12-07T11:33:39;4.10;99.90
21849;DHT22;11089;49.852;19.700;2022-12-07T11:36:43;4.00;99.90
21849;DHT22;11089;49.852;19.700;2022-12-07T11:39:50;4.00;99.90
21849;DHT22;11089;49.852;19.700;2022-12-07T11:46:08;3.90;99.90
21849;DHT22;11089;49.852;19.700;2022-12-07T11:49:35;3.90;93.50
21849;DHT22;11089;49.852;19.700;2022-12-07T11:52:48;3.80;96.00
21849;DHT22;11089;49.852;19.700;2022-12-07T12:02:16;3.70;55.60
21849;DHT22;11089;49.852;19.700;2022-12-07T12:05:24;3.60;72.90
21849;DHT22;11089;49.852;19.700;2022-12-07T12:08:33;3.50;34.60
21849;DHT22;11089;49.852;19.700;2022-12-07T12:15:01;3.50;20.00
21849;DHT22;11089;49.852;19.700;2022-12-07T12:21:26;3.30;1.00
21849;DHT22;11089;49.852;19.700;2022-12-07T12:24:31;3.30;1.00
21849;DHT22;11089;49.852;19.700;2022-12-07T12:27:39;3.30;1.00
21849;DHT22;11089;49.852;19.700;2022-12-07T12:30:41;3.20;1.00
21849;DHT22;11089;49.852;19.700;2022-12-07T12:33:50;3.20;1.00
21849;DHT22;11089;49.852;19.700;2022-12-07T12:36:52;3.20;1.00
21849;DHT22;11089;49.852;19.700;2022-12-07T12:43:41;3.20;1.00
21849;DHT22;11089;49.852;19.700;2022-12-07T12:46:48;3.20;1.00
21849;DHT22;11089;49.852;19.700;2022-12-07T12:53:24;3.10;10.60
21849;DHT22;11089;49.852;19.700;2022-12-07T12:57:21;3.10;48.60
21849;DHT22;11089;49.852;19.700;2022-12-07T13:02:56;3.10;99.90
21849;DHT22;11089;49.852;19.700;2022-12-07T13:09:34;3.00;86.00
21849;DHT22;11089;49.852;19.700;2022-12-07T13:12:36;3.10;39.20
21849;DHT22;11089;49.852;19.700;2022-12-07T13:15:43;3.00;13.70
21849;DHT22;11089;49.852;19.700;2022-12-07T13:18:44;3.00;25.00
21849;DHT22;11089;49.852;19.700;2022-12-07T13:21:45;3.10;1.00
21849;DHT22;11089;49.852;19.700;2022-12-07T13:24:46;3.20;1.00
21849;DHT22;11089;49.852;19.700;2022-12-07T13:28:02;3.20;1.00
21849;DHT22;11089;49.852;19.700;2022-12-07T13:34:36;3.20;1.00
21849;DHT22;11089;49.852;19.700;2022-12-07T13:37:38;3.10;1.00
21849;DHT22;11089;49.852;19.700;2022-12-07T13:40:39;3.20;1.00
21849;DHT22;11089;49.852;19.700;2022-12-07T13:50:25;3.20;1.00
21849;DHT22;11089;49.852;19.700;2022-12-07T13:53:28;3.00;1.00
21849;DHT22;11089;49.852;19.700;2022-12-07T13:56:35;3.00;1.00
21849;DHT22;11089;49.852;19.700;2022-12-07T13:59:37;2.90;1.00
21849;DHT22;11089;49.852;19.700;2022-12-07T14:06:17;2.90;1.00
21849;DHT22;11089;49.852;19.700;2022-12-07T14:09:23;2.80;1.00
21849;DHT22;11089;49.852;19.700;2022-12-07T14:12:25;2.80;1.00
21849;DHT22;11089;49.852;19.700;2022-12-07T14:15:32;2.20;1.00
21849;DHT22;11089;49.852;19.700;2022-12-07T14:18:39;2.70;1.00
21849;DHT22;11089;49.852;19.700;2022-12-07T14:21:40;2.70;1.00
21849;DHT22;11089;49.852;19.700;2022-12-07T14:24:42;2.60;1.00
21849;DHT22;11089;49.852;19.700;2022-12-07T14:27:52;2.60;1.00
21849;DHT22;11089;49.852;19.700;2022-12-07T14:30:56;2.60;1.00
21849;DHT22;11089;49.852;19.700;2022-12-07T14:34:00;2.50;1.00
21849;DHT22;11089;49.852;19.700;2022-12-07T14:37:01;2.50;1.00
21849;DHT22;11089;49.852;19.700;2022-12-07T14:40:02;2.50;1.00
21849;DHT22;11089;49.852;19.700;2022-12-07T14:43:08;2.50;1.00
21849;DHT22;11089;49.852;19.700;2022-12-07T14:46:09;2.50;1.00
21849;DHT22;11089;49.852;19.700;2022-12-07T14:49:10;2.50;1.00
21849;DHT22;11089;49.852;19.700;2022-12-07T14:52:20;2.50;1.00
21849;DHT22;11089;49.852;19.700;2022-12-07T14:55:25;2.50;1.00
21849;DHT22;11089;49.852;19.700;2022-12-07T14:58:26;2.50;1.00
21849;DHT22;11089;49.852;19.700;2022-12-07T15:01:27;2.50;1.00
21849;DHT22;11089;49.852;19.700;2022-12-07T15:04:28;2.60;1.00
21849;DHT22;11089;49.852;19.700;2022-12-07T15:07:29;2.50;1.00
21849;DHT22;11089;49.852;19.700;2022-12-07T15:10:33;2.50;1.00
21849;DHT22;11089;49.852;19.700;2022-12-07T15:13:34;2.50;1.00
21849;DHT22;11089;49.852;19.700;2022-12-07T15:16:49;2.50;1.00
21849;DHT22;11089;49.852;19.700;2022-12-07T15:19:50;2.50;1.00
21849;DHT22;11089;49.852;19.700;2022-12-07T15:22:51;2.50;1.00
21849;DHT22;11089;49.852;19.700;2022-12-07T15:25:52;2.50;1.00
21849;DHT22;11089;49.852;19.700;2022-12-07T15:28:53;2.50;1.00
21849;DHT22;11089;49.852;19.700;2022-12-07T15:31:54;2.60;1.00
21849;DHT22;11089;49.852;19.700;2022-12-07T15:34:56;2.60;1.00
21849;DHT22;11089;49.852;19.700;2022-12-07T15:37:57;2.60;1.00
21849;DHT22;11089;49.852;19.700;2022-12-07T15:40:58;2.50;1.00
21849;DHT22;11089;49.852;19.700;2022-12-07T15:43:59;2.50;1.00
21849;DHT22;11089;49.852;19.700;2022-12-07T15:47:13;2.50;1.00
21849;DHT22;11089;49.852;19.700;2022-12-07T15:50:15;2.50;1.00
21849;DHT22;11089;49.852;19.700;2022-12-07T15:53:17;2.50;1.00
21849;DHT22;11089;49.852;19.700;2022-12-07T15:56:18;2.60;1.00
21849;DHT22;11089;49.852;19.700;2022-12-07T15:59:19;2.50;1.00
21849;DHT22;11089;49.852;19.700;2022-12-07T16:02:20;2.60;1.00
21849;DHT22;11089;49.852;19.700;2022-12-07T16:05:23;2.60;1.00
21849;DHT22;11089;49.852;19.700;2022-12-07T16:08:24;2.60;1.00
21849;DHT22;11089;49.852;19.700;2022-12-07T16:11:25;2.60;1.00
21849;DHT22;11089;49.852;19.700;2022-12-07T16:14:25;2.60;1.00
21849;DHT22;11089;49.852;19.700;2022-12-07T16:17:27;2.60;1.00
21849;DHT22;11089;49.852;19.700;2022-12-07T16:20:27;2.60;1.00
21849;DHT22;11089;49.852;19.700;2022-12-07T16:23:28;2.60;1.00
21849;DHT22;11089;49.852;19.700;2022-12-07T16:26:29;2.60;1.00
21849;DHT22;11089;49.852;19.700;2022-12-07T16:29:31;2.60;1.00
21849;DHT22;11089;49.852;19.700;2022-12-07T16:32:31;2.60;1.00
21849;DHT22;11089;49.852;19.700;2022-12-07T16:35:32;2.60;1.00
21849;DHT22;11089;49.852;19.700;2022-12-07T16:38:34;2.60;1.00
21849;DHT22;11089;49.852;19.700;2022-12-07T16:41:35;2.60;1.00
21849;DHT22;11089;49.852;19.700;2022-12-07T16:44:37;2.60;1.00
21849;DHT22;11089;49.852;19.700;2022-12-07T16:47:38;2.60;1.00
21849;DHT22;11089;49.852;19.700;2022-12-07T16:50:40;2.60;1.00
21849;DHT22;11089;49.852;19.700;2022-12-07T16:53:42;2.60;1.00
21849;DHT22;11089;49.852;19.700;2022-12-07T16:56:43;2.60;1.00
21849;DHT22;11089;49.852;19.700;2022-12-07T16:59:45;2.60;1.00
21849;DHT22;11089;49.852;19.700;2022-12-07T17:02:45;2.60;1.00
21849;DHT22;11089;49.852;19.700;2022-12-07T17:05:47;2.60;1.00
21849;DHT22;11089;49.852;19.700;2022-12-07T17:08:50;2.50;1.00
21849;DHT22;11089;49.852;19.700;2022-12-07T17:11:51;2.60;1.00
21849;DHT22;11089;49.852;19.700;2022-12-07T17:14:52;2.60;1.00
21849;DHT22;11089;49.852;19.700;2022-12-07T17:18:07;2.50;1.00
21849;DHT22;11089;49.852;19.700;2022-12-07T17:21:09;2.50;1.00
21849;DHT22;11089;49.852;19.700;2022-12-07T17:24:13;2.50;1.00
21849;DHT22;11089;49.852;19.700;2022-12-07T17:27:14;2.40;1.00
21849;DHT22;11089;49.852;19.700;2022-12-07T17:30:15;2.40;1.00
21849;DHT22;11089;49.852;19.700;2022-12-07T17:33:16;2.40;1.00
21849;DHT22;11089;49.852;19.700;2022-12-07T17:36:23;2.40;1.00
21849;DHT22;11089;49.852;19.700;2022-12-07T17:39:25;2.40;1.00
21849;DHT22;11089;49.852;19.700;2022-12-07T17:42:26;2.40;1.00
21849;DHT22;11089;49.852;19.700;2022-12-07T17:45:41;2.40;1.00
21849;DHT22;11089;49.852;19.700;2022-12-07T17:48:41;2.40;1.00
21849;DHT22;11089;49.852;19.700;2022-12-07T17:51:42;2.30;1.00
21849;DHT22;11089;49.852;19.700;2022-12-07T17:54:57;2.30;1.00
21849;DHT22;11089;49.852;19.700;2022-12-07T17:57:58;2.30;1.00
21849;DHT22;11089;49.852;19.700;2022-12-07T18:00:59;2.20;1.00
21849;DHT22;11089;49.852;19.700;2022-12-07T18:04:01;2.20;1.00
21849;DHT22;11089;49.852;19.700;2022-12-07T18:07:02;2.20;1.00
21849;DHT22;11089;49.852;19.700;2022-12-07T18:10:06;2.20;1.00
21849;DHT22;11089;49.852;19.700;2022-12-07T18:13:08;2.20;1.00
21849;DHT22;11089;49.852;19.700;2022-12-07T18:16:25;2.20;1.00
21849;DHT22;11089;49.852;19.700;2022-12-07T18:19:26;2.10;1.00
21849;DHT22;11089;49.852;19.700;2022-12-07T18:22:27;2.10;1.00
21849;DHT22;11089;49.852;19.700;2022-12-07T18:25:28;2.10;1.00
21849;DHT22;11089;49.852;19.700;2022-12-07T18:28:29;2.10;1.00
21849;DHT22;11089;49.852;19.700;2022-12-07T18:31:31;2.10;1.00
21849;DHT22;11089;49.852;19.700;2022-12-07T18:34:32;2.10;1.00
21849;DHT22;11089;49.852;19.700;2022-12-07T18:37:33;2.00;1.00
21849;DHT22;11089;49.852;19.700;2022-12-07T18:40:37;2.00;1.00
21849;DHT22;11089;49.852;19.700;2022-12-07T18:43:38;2.00;1.00
21849;DHT22;11089;49.852;19.700;2022-12-07T18:46:40;2.00;1.00
21849;DHT22;11089;49.852;19.700;2022-12-07T18:49:42;2.00;1.00
21849;DHT22;11089;49.852;19.700;2022-12-07T18:52:43;2.00;1.00
21849;DHT22;11089;49.852;19.700;2022-12-07T18:55:44;2.00;1.00
21849;DHT22;11089;49.852;19.700;2022-12-07T18:58:50;2.00;1.00
21849;DHT22;11089;49.852;19.700;2022-12-07T19:02:06;2.00;1.00
21849;DHT22;11089;49.852;19.700;2022-12-07T19:05:07;2.00;1.00
21849;DHT22;11089;49.852;19.700;2022-12-07T19:08:08;2.00;1.00
21849;DHT22;11089;49.852;19.700;2022-12-07T19:11:17;2.00;1.00
21849;DHT22;11089;49.852;19.700;2022-12-07T19:14:34;2.00;1.00
21849;DHT22;11089;49.852;19.700;2022-12-07T19:17:36;2.00;1.00
21849;DHT22;11089;49.852;19.700;2022-12-07T19:20:37;2.00;1.00
21849;DHT22;11089;49.852;19.700;2022-12-07T19:23:37;2.10;1.00
21849;DHT22;11089;49.852;19.700;2022-12-07T19:26:38;2.10;1.00
21849;DHT22;11089;49.852;19.700;2022-12-07T19:29:40;2.10;1.00
21849;DHT22;11089;49.852;19.700;2022-12-07T19:32:42;2.10;1.00
21849;DHT22;11089;49.852;19.700;2022-12-07T19:35:42;2.10;1.00
21849;DHT22;11089;49.852;19.700;2022-12-07T19:38:43;2.10;1.00
21849;DHT22;11089;49.852;19.700;2022-12-07T19:41:45;2.10;1.00
21849;DHT22;11089;49.852;19.700;2022-12-07T19:44:46;2.20;1.00
21849;DHT22;11089;49.852;19.700;2022-12-07T19:47:47;2.20;1.00
21849;DHT22;11089;49.852;19.700;2022-12-07T19:50:47;2.30;1.00
21849;DHT22;11089;49.852;19.700;2022-12-07T19:53:48;2.30;1.00
21849;DHT22;11089;49.852;19.700;2022-12-07T19:56:50;2.30;1.00
21849;DHT22;11089;49.852;19.700;2022-12-07T19:59:51;2.30;1.00
21849;DHT22;11089;49.852;19.700;2022-12-07T20:02:52;2.30;1.00
21849;DHT22;11089;49.852;19.700;2022-12-07T20:05:53;2.30;1.00
21849;DHT22;11089;49.852;19.700;2022-12-07T20:08:55;2.30;1.00
21849;DHT22;11089;49.852;19.700;2022-12-07T20:11:55;2.30;1.00
21849;DHT22;11089;49.852;19.700;2022-12-07T20:15:10;2.40;1.00
21849;DHT22;11089;49.852;19.700;2022-12-07T20:18:11;2.30;1.00
21849;DHT22;11089;49.852;19.700;2022-12-07T20:21:12;2.40;1.00
21849;DHT22;11089;49.852;19.700;2022-12-07T20:24:19;2.40;1.00
21849;DHT22;11089;49.852;19.700;2022-12-07T20:27:20;2.40;1.00
21849;DHT22;11089;49.852;19.700;2022-12-07T20:30:21;2.40;1.00
21849;DHT22;11089;49.852;19.700;2022-12-07T20:33:22;2.40;1.00
21849;DHT22;11089;49.852;19.700;2022-12-07T20:36:23;2.40;99.90
21849;DHT22;11089;49.852;19.700;2022-12-07T20:39:24;2.40;1.00
21849;DHT22;11089;49.852;19.700;2022-12-07T20:42:25;2.40;99.90
21849;DHT22;11089;49.852;19.700;2022-12-07T20:45:44;2.50;99.90